createdAt,value
2019-02-21T00:01:35.649Z,67.84
2019-02-21T00:04:07.113Z,67.84
2019-02-21T00:06:38.769Z,67.85
2019-02-21T00:09:10.440Z,67.81
2019-02-21T00:11:42.032Z,67.92
2019-02-21T00:14:13.393Z,67.91
2019-02-21T00:16:44.683Z,67.96
2019-02-21T00:19:16.340Z,67.88
2019-02-21T00:21:48.036Z,67.88
2019-02-21T00:24:20.206Z,68.04
2019-02-21T00:26:51.945Z,67.93
2019-02-21T00:29:23.768Z,67.96
2019-02-21T00:31:55.320Z,67.94
2019-02-21T00:34:26.626Z,67.91
2019-02-21T00:36:58.069Z,68.07
2019-02-21T00:39:29.989Z,68.00
2019-02-21T00:42:01.358Z,67.92
2019-02-21T00:44:33.413Z,67.97
2019-02-21T00:47:04.782Z,67.96
2019-02-21T00:49:37.123Z,67.92
2019-02-21T00:52:08.495Z,67.82
2019-02-21T00:54:40.108Z,67.96
2019-02-21T00:57:11.415Z,67.90
2019-02-21T00:59:43.407Z,67.98
2019-02-21T01:02:14.765Z,67.96
2019-02-21T01:04:46.522Z,67.98
2019-02-21T01:07:18.224Z,68.01
2019-02-21T01:09:49.864Z,67.91
2019-02-21T01:12:21.709Z,68.00
2019-02-21T01:14:53.569Z,67.81
2019-02-21T01:17:24.958Z,67.86
2019-02-21T01:19:56.578Z,67.99
2019-02-21T01:22:28.800Z,68.03
2019-02-21T01:25:00.682Z,67.97
2019-02-21T01:27:32.126Z,67.87
2019-02-21T01:30:03.510Z,67.96
2019-02-21T01:32:34.817Z,67.90
2019-02-21T01:35:06.765Z,67.93
2019-02-21T01:37:38.121Z,67.83
2019-02-21T01:40:09.932Z,68.14
2019-02-21T01:42:41.312Z,68.01
2019-02-21T01:45:12.817Z,68.08
2019-02-21T01:47:44.420Z,67.96
2019-02-21T01:50:16.238Z,68.10
2019-02-21T01:52:47.655Z,68.19
2019-02-21T01:55:19.102Z,68.25
2019-02-21T01:57:50.674Z,68.14
2019-02-21T02:00:22.181Z,68.23
2019-02-21T02:02:53.492Z,68.20
2019-02-21T02:05:25.199Z,68.21
2019-02-21T02:07:56.599Z,68.44
2019-02-21T02:10:27.950Z,68.57
2019-02-21T02:12:59.281Z,68.45
2019-02-21T02:15:30.979Z,68.49
2019-02-21T02:18:02.857Z,68.59
2019-02-21T02:20:34.675Z,68.59
2019-02-21T02:23:06.713Z,68.65
2019-02-21T02:25:38.336Z,68.74
2019-02-21T02:28:09.661Z,68.84
2019-02-21T02:30:41.039Z,68.90
2019-02-21T02:33:12.330Z,68.89
2019-02-21T02:35:45.546Z,69.04
2019-02-21T02:38:17.340Z,69.23
2019-02-21T02:40:49.765Z,69.33
2019-02-21T02:43:21.511Z,69.38
2019-02-21T02:45:53.191Z,69.49
2019-02-21T02:48:24.897Z,69.56
2019-02-21T02:50:56.611Z,69.68
2019-02-21T02:53:28.369Z,69.74
2019-02-21T02:55:59.786Z,69.71
2019-02-21T02:58:31.090Z,69.95
2019-02-21T03:01:02.532Z,69.88
2019-02-21T03:03:34.176Z,69.75
2019-02-21T03:06:05.733Z,69.95
2019-02-21T03:08:37.696Z,69.81
2019-02-21T03:11:09.000Z,69.54
2019-02-21T03:13:40.678Z,69.62
2019-02-21T03:16:12.430Z,69.65
2019-02-21T03:18:44.879Z,69.61
2019-02-21T03:21:16.762Z,69.56
2019-02-21T03:23:48.355Z,69.58
2019-02-21T03:26:19.650Z,69.46
2019-02-21T03:28:51.145Z,69.43
2019-02-21T03:31:22.677Z,69.56
2019-02-21T03:33:53.973Z,69.74
2019-02-21T03:36:25.281Z,69.66
2019-02-21T03:38:56.934Z,69.44
2019-02-21T03:41:28.537Z,69.64
2019-02-21T03:44:00.898Z,69.65
2019-02-21T03:46:33.057Z,69.67
2019-02-21T03:49:04.724Z,69.55
2019-02-21T03:51:36.378Z,69.48
2019-02-21T03:54:10.465Z,69.66
2019-02-21T03:56:41.787Z,69.76
2019-02-21T03:59:13.644Z,69.88
2019-02-21T04:01:45.897Z,69.81
2019-02-21T04:04:17.412Z,69.73
2019-02-21T04:06:49.385Z,69.87
2019-02-21T04:09:21.108Z,69.91
2019-02-21T04:11:52.412Z,69.73
2019-02-21T04:14:24.522Z,69.92
2019-02-21T04:16:57.767Z,69.95
2019-02-21T04:19:29.965Z,69.95
2019-02-21T04:22:01.413Z,69.99
2019-02-21T04:24:33.209Z,69.85
2019-02-21T04:27:04.898Z,69.99
2019-02-21T04:29:36.598Z,69.92
2019-02-21T04:32:16.575Z,70.14
2019-02-21T04:34:41.256Z,70.23
2019-02-21T04:37:12.602Z,70.43
2019-02-21T04:39:44.307Z,70.90
2019-02-21T04:42:15.581Z,71.14
2019-02-21T04:44:47.328Z,71.67
2019-02-21T04:47:18.986Z,71.84
2019-02-21T04:49:50.656Z,72.09
2019-02-21T04:52:22.021Z,72.61
2019-02-21T04:54:53.513Z,72.70
2019-02-21T04:57:26.905Z,72.77
2019-02-21T04:59:58.286Z,73.29
2019-02-21T05:02:29.862Z,73.28
2019-02-21T05:05:02.321Z,73.47
2019-02-21T05:07:33.709Z,73.53
2019-02-21T05:10:05.069Z,73.36
2019-02-21T05:12:36.485Z,73.52
2019-02-21T05:15:08.775Z,73.63
2019-02-21T05:17:40.450Z,73.57
2019-02-21T05:20:12.675Z,73.46
2019-02-21T05:22:44.359Z,73.62
2019-02-21T05:26:00.625Z,73.70
2019-02-21T05:28:33.718Z,73.73
2019-02-21T05:31:21.707Z,73.46
2019-02-21T05:34:04.214Z,73.73
2019-02-21T05:36:54.453Z,73.60
2019-02-21T05:39:45.960Z,73.47
2019-02-21T05:42:42.273Z,73.63
2019-02-21T05:45:34.346Z,73.72
2019-02-21T05:48:40.976Z,73.81
2019-02-21T05:51:33.814Z,73.56
2019-02-21T05:54:26.751Z,73.79
2019-02-21T05:57:15.276Z,73.75
2019-02-21T06:00:18.230Z,74.07
2019-02-21T06:02:57.479Z,74.11
2019-02-21T06:05:47.624Z,74.32
2019-02-21T06:08:32.546Z,74.26
2019-02-21T06:11:21.729Z,74.10
2019-02-21T06:14:10.730Z,74.19
2019-02-21T06:17:03.841Z,74.17
2019-02-21T06:20:06.673Z,74.09
2019-02-21T06:23:09.160Z,74.02
2019-02-21T06:25:55.441Z,74.11
2019-02-21T06:28:28.544Z,73.74
2019-02-21T06:31:05.967Z,73.96
2019-02-21T06:33:37.335Z,73.94
2019-02-21T06:36:09.603Z,73.92
2019-02-21T06:38:41.128Z,74.01
2019-02-21T06:41:12.634Z,74.10
2019-02-21T06:43:44.277Z,74.13
2019-02-21T06:46:15.895Z,74.23
2019-02-21T06:48:47.233Z,74.22
2019-02-21T06:51:18.564Z,74.25
2019-02-21T06:53:53.019Z,74.32
2019-02-21T06:56:29.098Z,74.01
2019-02-21T06:59:01.089Z,74.33
2019-02-21T07:01:32.508Z,74.48
2019-02-21T07:04:04.271Z,74.46
2019-02-21T07:06:35.787Z,74.55
2019-02-21T07:09:07.519Z,74.30
2019-02-21T07:11:39.149Z,74.36
2019-02-21T07:14:11.745Z,74.43
2019-02-21T07:16:43.054Z,74.06
2019-02-21T07:19:14.925Z,74.38
2019-02-21T07:21:46.642Z,74.26
2019-02-21T07:24:18.191Z,74.35
2019-02-21T07:26:52.902Z,74.04
2019-02-21T07:29:24.193Z,74.31
2019-02-21T07:31:55.494Z,74.05
2019-02-21T07:34:26.829Z,74.11
2019-02-21T07:36:58.164Z,74.09
2019-02-21T07:39:35.989Z,73.87
2019-02-21T07:42:04.488Z,73.81
2019-02-21T07:44:35.906Z,73.78
2019-02-21T07:47:10.751Z,74.07
2019-02-21T07:49:42.947Z,73.46
2019-02-21T07:52:15.176Z,73.58
2019-02-21T07:54:49.530Z,73.03
2019-02-21T07:57:19.925Z,72.76
2019-02-21T07:59:51.285Z,72.95
2019-02-21T08:02:22.806Z,73.26
2019-02-21T08:04:54.452Z,72.90
2019-02-21T08:07:26.445Z,73.34
2019-02-21T08:09:58.052Z,73.05
2019-02-21T08:12:29.318Z,73.41
2019-02-21T08:15:00.948Z,73.47
2019-02-21T08:17:32.572Z,72.92
2019-02-21T08:20:08.367Z,73.42
2019-02-21T08:22:37.909Z,73.47
2019-02-21T08:25:10.565Z,72.94
2019-02-21T08:27:42.661Z,72.85
2019-02-21T08:30:15.884Z,72.50
2019-02-21T08:33:18.588Z,72.76
2019-02-21T08:35:50.218Z,72.06
2019-02-21T08:38:22.338Z,72.34
2019-02-21T08:40:56.453Z,71.80
2019-02-21T08:43:27.555Z,71.56
2019-02-21T08:45:59.397Z,71.66
2019-02-21T08:48:31.388Z,71.84
2019-02-21T08:51:06.216Z,71.14
2019-02-21T08:53:38.339Z,70.83
2019-02-21T08:56:10.037Z,71.02
2019-02-21T08:58:42.469Z,71.12
2019-02-21T09:01:14.080Z,70.65
2019-02-21T09:03:47.301Z,70.31
2019-02-21T09:06:19.631Z,70.09
2019-02-21T09:08:51.284Z,70.14
2019-02-21T09:11:23.522Z,69.84
2019-02-21T09:13:57.785Z,69.89
2019-02-21T09:16:29.091Z,69.04
2019-02-21T09:19:00.416Z,68.94
2019-02-21T09:21:32.161Z,68.92
2019-02-21T09:24:03.404Z,68.56
2019-02-21T09:26:35.277Z,68.65
2019-02-21T09:29:07.163Z,68.17
2019-02-21T09:31:38.772Z,67.99
2019-02-21T09:34:20.638Z,67.81
2019-02-21T09:36:43.512Z,67.71
2019-02-21T09:39:16.069Z,67.25
2019-02-21T09:41:47.489Z,67.21
2019-02-21T09:44:20.193Z,66.68
2019-02-21T09:46:51.862Z,66.59
2019-02-21T09:49:26.567Z,65.83
2019-02-21T09:51:58.882Z,65.47
2019-02-21T09:54:30.168Z,65.03
2019-02-21T09:57:12.542Z,64.20
2019-02-21T09:59:34.573Z,63.71
2019-02-21T10:02:05.954Z,62.76
2019-02-21T10:04:37.390Z,62.20
2019-02-21T10:07:08.995Z,62.20
2019-02-21T10:09:40.331Z,61.16
2019-02-21T10:12:12.089Z,60.09
2019-02-21T10:14:43.716Z,59.38
2019-02-21T10:17:15.016Z,59.06
2019-02-21T10:19:46.377Z,57.99
2019-02-21T10:22:17.998Z,57.28
2019-02-21T10:24:50.189Z,57.57
2019-02-21T10:27:21.959Z,57.96
2019-02-21T10:29:53.665Z,58.31
2019-02-21T10:32:25.020Z,58.79
2019-02-21T10:34:58.046Z,57.85
2019-02-21T10:37:29.911Z,57.64
2019-02-21T10:40:01.202Z,57.54
2019-02-21T10:42:32.561Z,57.60
2019-02-21T10:45:03.856Z,58.57
2019-02-21T10:47:35.349Z,58.03
2019-02-21T10:50:09.477Z,57.94
2019-02-21T10:55:23.592Z,57.74
2019-02-21T10:57:55.168Z,57.97
2019-02-21T11:00:28.354Z,57.80
2019-02-21T11:03:00.368Z,57.06
2019-02-21T11:05:31.958Z,57.53
2019-02-21T11:08:03.308Z,57.10
2019-02-21T11:10:35.087Z,57.12
2019-02-21T11:13:06.350Z,57.68
2019-02-21T11:15:37.621Z,57.30
2019-02-21T11:18:09.747Z,56.66
2019-02-21T11:20:40.995Z,57.10
2019-02-21T11:23:12.336Z,57.23
2019-02-21T11:25:43.634Z,57.26
2019-02-21T11:28:15.169Z,57.40
2019-02-21T11:30:46.432Z,57.40
2019-02-21T11:33:17.839Z,57.83
2019-02-21T11:35:49.349Z,57.75
2019-02-21T11:38:20.684Z,57.78
2019-02-21T11:40:53.514Z,58.06
2019-02-21T11:43:25.090Z,57.86
2019-02-21T11:45:57.424Z,57.26
2019-02-21T11:48:30.191Z,57.25
2019-02-21T11:51:01.917Z,57.83
2019-02-21T11:53:33.608Z,57.70
2019-02-21T11:56:05.705Z,57.67
2019-02-21T11:58:37.635Z,57.36
2019-02-21T12:01:11.844Z,57.72
2019-02-21T12:03:43.152Z,57.72
2019-02-21T12:06:14.733Z,57.56
2019-02-21T12:08:45.973Z,57.96
2019-02-21T12:11:17.278Z,58.03
2019-02-21T12:13:49.518Z,58.30
2019-02-21T12:16:20.860Z,58.48
2019-02-21T12:18:52.826Z,58.68
2019-02-21T12:21:24.536Z,59.73
2019-02-21T12:23:56.071Z,60.86
2019-02-21T12:26:27.390Z,61.95
2019-02-21T12:28:59.307Z,62.10
2019-02-21T12:31:30.543Z,62.27
2019-02-21T12:34:01.832Z,62.97
2019-02-21T12:36:33.245Z,63.27
2019-02-21T12:39:05.692Z,62.84
2019-02-21T12:41:37.339Z,63.17
2019-02-21T12:44:08.585Z,64.05
2019-02-21T12:46:41.164Z,64.10
2019-02-21T12:49:12.461Z,64.19
2019-02-21T12:51:43.829Z,64.48
2019-02-21T12:54:15.410Z,64.59
2019-02-21T12:56:46.799Z,64.70
2019-02-21T12:59:18.415Z,64.54
2019-02-21T13:01:49.687Z,64.89
2019-02-21T13:04:21.294Z,64.79
2019-02-21T13:06:52.868Z,65.22
2019-02-21T13:09:24.517Z,65.11
2019-02-21T13:11:56.196Z,64.99
2019-02-21T13:14:27.715Z,65.10
2019-02-21T13:16:58.951Z,65.27
2019-02-21T13:19:30.816Z,65.11
2019-02-21T13:22:02.470Z,65.00
2019-02-21T13:24:34.071Z,64.92
2019-02-21T13:27:05.369Z,64.89
2019-02-21T13:29:36.883Z,65.14
2019-02-21T13:32:08.111Z,65.50
2019-02-21T13:34:39.399Z,65.13
2019-02-21T13:37:10.653Z,65.05
2019-02-21T13:39:42.198Z,64.74
2019-02-21T13:42:13.856Z,65.13
2019-02-21T13:44:45.209Z,64.17
2019-02-21T13:47:16.472Z,63.89
2019-02-21T13:49:47.775Z,63.21
2019-02-21T13:52:19.235Z,63.15
2019-02-21T13:54:50.813Z,63.00
2019-02-21T13:57:22.537Z,62.75
2019-02-21T13:59:53.810Z,62.79
2019-02-21T14:02:25.668Z,62.72
2019-02-21T14:04:58.875Z,62.32
2019-02-21T14:07:30.273Z,62.09
2019-02-21T14:10:01.903Z,61.93
2019-02-21T14:12:33.571Z,62.01
2019-02-21T14:15:05.349Z,62.04
2019-02-21T14:17:36.617Z,61.85
2019-02-21T14:20:11.054Z,62.03
2019-02-21T14:22:43.860Z,61.95
2019-02-21T14:25:15.721Z,61.77
2019-02-21T14:27:47.320Z,62.18
2019-02-21T14:30:19.317Z,62.25
2019-02-21T14:32:50.683Z,62.34
2019-02-21T14:35:22.410Z,62.22
2019-02-21T14:37:53.651Z,62.50
2019-02-21T14:40:25.975Z,62.56
2019-02-21T14:42:57.628Z,62.61
2019-02-21T14:45:28.885Z,62.63
2019-02-21T14:48:00.410Z,62.76
2019-02-21T14:50:31.806Z,62.74
2019-02-21T14:53:03.411Z,62.94
2019-02-21T14:55:35.172Z,62.96
2019-02-21T14:58:07.137Z,62.98
2019-02-21T15:00:39.389Z,63.17
2019-02-21T15:03:21.184Z,63.29
2019-02-21T15:05:43.588Z,63.31
2019-02-21T15:08:16.317Z,63.50
2019-02-21T15:10:47.659Z,63.59
2019-02-21T15:13:19.336Z,63.60
2019-02-21T15:15:50.860Z,63.68
2019-02-21T15:18:23.138Z,63.90
2019-02-21T15:20:54.743Z,64.05
2019-02-21T15:23:26.306Z,63.94
2019-02-21T15:25:58.371Z,64.24
2019-02-21T15:28:29.768Z,64.55
2019-02-21T15:31:01.080Z,64.67
2019-02-21T15:33:32.516Z,64.73
2019-02-21T15:36:03.888Z,64.72
2019-02-21T15:38:35.181Z,64.91
2019-02-21T15:41:06.907Z,65.25
2019-02-21T15:43:38.211Z,65.42
2019-02-21T15:46:09.762Z,66.33
2019-02-21T15:48:44.458Z,67.22
2019-02-21T15:51:15.886Z,67.41
2019-02-21T15:53:47.174Z,67.46
2019-02-21T15:56:18.482Z,67.56
2019-02-21T15:58:50.076Z,67.80
2019-02-21T16:01:21.343Z,67.73
2019-02-21T16:03:52.707Z,68.42
2019-02-21T16:06:24.388Z,68.84
2019-02-21T16:08:55.650Z,69.15
2019-02-21T16:11:27.355Z,69.64
2019-02-21T16:14:03.100Z,69.34
2019-02-21T16:16:31.574Z,69.88
2019-02-21T16:19:02.821Z,69.73
2019-02-21T16:21:34.863Z,70.03
2019-02-21T16:24:06.108Z,70.49
2019-02-21T16:26:37.767Z,70.49
2019-02-21T16:29:09.073Z,70.42
2019-02-21T16:31:40.328Z,70.82
2019-02-21T16:34:11.582Z,71.37
2019-02-21T16:36:42.890Z,71.32
2019-02-21T16:39:14.170Z,71.97
2019-02-21T16:41:46.028Z,72.03
2019-02-21T16:44:18.076Z,72.26
2019-02-21T16:46:49.637Z,72.44
2019-02-21T16:49:21.517Z,72.51
2019-02-21T16:51:53.146Z,72.43
2019-02-21T16:54:24.452Z,72.35
2019-02-21T16:56:56.358Z,72.62
2019-02-21T16:59:27.645Z,73.60
2019-02-21T17:01:59.226Z,73.51
2019-02-21T17:04:31.084Z,73.55
2019-02-21T17:07:13.046Z,74.32
2019-02-21T17:09:35.838Z,73.80
2019-02-21T17:12:08.394Z,74.56
2019-02-21T17:14:39.706Z,74.04
2019-02-21T17:17:11.303Z,73.75
2019-02-21T17:19:42.544Z,73.86
2019-02-21T17:22:13.840Z,73.99
2019-02-21T17:24:45.457Z,74.38
2019-02-21T17:27:17.373Z,74.37
2019-02-21T17:29:48.974Z,75.05
2019-02-21T17:32:20.255Z,74.72
2019-02-21T17:34:52.169Z,75.41
2019-02-21T17:37:25.221Z,76.39
2019-02-21T17:39:56.374Z,75.63
2019-02-21T17:42:27.939Z,76.12
2019-02-21T17:44:59.304Z,76.77
2019-02-21T17:47:32.837Z,77.08
2019-02-21T17:50:04.380Z,76.77
2019-02-21T17:52:35.719Z,78.36
2019-02-21T17:55:07.803Z,78.39
2019-02-21T17:57:40.399Z,78.85
2019-02-21T18:00:17.491Z,78.97
2019-02-21T18:02:49.237Z,79.19
2019-02-21T18:05:20.521Z,78.88
2019-02-21T18:07:51.875Z,79.51
2019-02-21T18:10:23.278Z,80.39
2019-02-21T18:12:54.596Z,80.09
2019-02-21T18:15:26.287Z,80.29
2019-02-21T18:17:57.654Z,80.00
2019-02-21T18:20:28.914Z,79.88
2019-02-21T18:23:00.506Z,79.98
2019-02-21T18:25:39.211Z,80.04
2019-02-21T18:28:10.909Z,80.05
2019-02-21T18:30:42.367Z,79.96
2019-02-21T18:33:14.024Z,81.51
2019-02-21T18:35:45.296Z,81.40
2019-02-21T18:38:16.627Z,81.08
2019-02-21T18:40:48.016Z,80.61
2019-02-21T18:43:19.734Z,80.73
2019-02-21T18:45:51.044Z,80.75
2019-02-21T18:48:22.815Z,81.18
2019-02-21T18:50:54.362Z,80.67
2019-02-21T18:53:25.663Z,80.56
2019-02-21T18:55:56.917Z,82.43
2019-02-21T18:58:28.189Z,81.16
2019-02-21T19:00:59.674Z,80.86
2019-02-21T19:03:30.969Z,80.56
2019-02-21T19:06:02.295Z,80.94
2019-02-21T19:08:33.724Z,81.53
2019-02-21T19:11:05.356Z,82.13
2019-02-21T19:13:37.026Z,81.35
2019-02-21T19:16:08.332Z,81.03
2019-02-21T19:18:40.870Z,81.56
2019-02-21T19:21:12.130Z,81.19
2019-02-21T19:23:43.566Z,81.31
2019-02-21T19:26:15.517Z,81.13
2019-02-21T19:28:47.485Z,81.85
2019-02-21T19:31:20.966Z,81.18
2019-02-21T19:33:52.624Z,81.72
2019-02-21T19:36:24.272Z,82.05
2019-02-21T19:38:56.360Z,81.44
2019-02-21T19:41:27.609Z,81.99
2019-02-21T19:44:08.481Z,81.71
2019-02-21T19:46:32.162Z,82.15
2019-02-21T19:49:03.730Z,81.75
2019-02-21T19:51:35.295Z,82.02
2019-02-21T19:54:06.978Z,82.48
2019-02-21T19:56:38.258Z,82.08
2019-02-21T19:59:09.891Z,81.90
2019-02-21T20:01:41.185Z,82.56
2019-02-21T20:04:12.782Z,81.48
2019-02-21T20:06:45.564Z,82.25
2019-02-21T20:09:17.479Z,82.39
2019-02-21T20:11:48.710Z,82.36
2019-02-21T20:14:21.443Z,82.04
2019-02-21T20:16:52.759Z,82.00
2019-02-21T20:19:24.481Z,81.60
2019-02-21T20:21:56.518Z,82.30
2019-02-21T20:24:28.181Z,82.04
2019-02-21T20:27:00.387Z,81.85
2019-02-21T20:29:31.858Z,81.98
2019-02-21T20:32:03.493Z,82.36
2019-02-21T20:34:35.099Z,82.22
2019-02-21T20:37:06.670Z,82.16
2019-02-21T20:39:37.986Z,82.30
2019-02-21T20:42:09.351Z,82.29
2019-02-21T20:44:40.932Z,81.98
2019-02-21T20:47:12.590Z,82.53
2019-02-21T20:49:44.191Z,82.47
2019-02-21T20:52:15.752Z,82.90
2019-02-21T20:54:47.013Z,82.82
2019-02-21T20:57:18.874Z,82.52
2019-02-21T20:59:50.045Z,82.02
2019-02-21T21:02:21.448Z,83.06
2019-02-21T21:04:52.817Z,82.40
2019-02-21T21:07:25.363Z,82.63
2019-02-21T21:09:57.270Z,82.51
2019-02-21T21:12:28.538Z,82.42
2019-02-21T21:15:00.867Z,82.34
2019-02-21T21:17:32.141Z,82.25
2019-02-21T21:20:03.493Z,82.93
2019-02-21T21:22:34.827Z,82.35
2019-02-21T21:25:06.776Z,82.35
2019-02-21T21:27:38.245Z,83.43
2019-02-21T21:30:11.809Z,82.77
2019-02-21T21:32:43.461Z,83.53
2019-02-21T21:35:14.994Z,82.70
2019-02-21T21:37:46.598Z,82.44
2019-02-21T21:40:18.394Z,82.60
2019-02-21T21:42:49.923Z,81.99
2019-02-21T21:45:21.367Z,82.92
2019-02-21T21:47:52.767Z,83.40
2019-02-21T21:50:24.063Z,83.29
2019-02-21T21:52:55.312Z,82.56
2019-02-21T21:55:26.655Z,82.80
2019-02-21T21:57:58.299Z,82.35
2019-02-21T22:00:29.524Z,82.22
2019-02-21T22:03:00.859Z,82.50
2019-02-21T22:05:32.093Z,83.02
2019-02-21T22:08:03.335Z,82.55
2019-02-21T22:10:35.146Z,82.18
2019-02-21T22:13:06.366Z,82.11
2019-02-21T22:15:37.862Z,82.60
2019-02-21T22:18:09.724Z,82.65
2019-02-21T22:20:40.977Z,82.89
2019-02-21T22:23:12.523Z,82.11
2019-02-21T22:25:44.192Z,82.35
2019-02-21T22:28:15.508Z,82.91
2019-02-21T22:30:47.064Z,83.01
2019-02-21T22:33:18.432Z,82.56
2019-02-21T22:35:50.274Z,82.59
2019-02-21T22:38:21.915Z,82.35
2019-02-21T22:40:53.306Z,82.58
2019-02-21T22:43:24.607Z,82.98
2019-02-21T22:45:55.863Z,82.50
2019-02-21T22:48:30.234Z,83.13
2019-02-21T22:51:01.521Z,83.15
2019-02-21T22:53:33.074Z,82.68
2019-02-21T22:56:04.706Z,82.72
2019-02-21T22:58:44.689Z,82.56
2019-02-21T23:01:40.455Z,83.60
2019-02-21T23:05:13.859Z,83.29
2019-02-21T23:08:43.449Z,82.41
2019-02-21T23:11:15.559Z,82.41
2019-02-21T23:13:47.576Z,82.86
2019-02-21T23:16:19.644Z,82.75
2019-02-21T23:18:51.877Z,83.01
2019-02-21T23:21:23.664Z,83.56
2019-02-21T23:23:55.006Z,82.84
2019-02-21T23:26:28.617Z,83.10
2019-02-21T23:28:59.868Z,83.42
2019-02-21T23:31:32.163Z,83.39
2019-02-21T23:34:04.532Z,83.50
2019-02-21T23:36:36.469Z,83.24
2019-02-21T23:39:08.367Z,83.40
2019-02-21T23:41:39.948Z,83.29
2019-02-21T23:44:11.212Z,83.00
2019-02-21T23:46:42.674Z,82.48
2019-02-21T23:49:14.063Z,83.66
2019-02-21T23:51:45.253Z,83.12
2019-02-21T23:54:17.940Z,82.69
2019-02-21T23:56:50.017Z,83.12
2019-02-21T23:59:21.451Z,83.01
